Time;durP1;ratioP1;P1;durP2;ratioP2;P2;SDS_P1;SDS_P2;PMS_P1;PMS_P2;Temp;Humidity;BMP_temperature;BMP_pressure;BME280_temperature;BME280_humidity;BME280_pressure;Samples;Min_cycle;Max_cycle;Signal;HPM_P1;HPM_P2
2022/11/07 00:01:17;;;;;;;10.73;6.47;;;;;;;;;;5083854;28;20028;-74
2022/11/07 00:03:43;;;;;;;10.75;6.20;;;;;;;;;;5088214;28;20028;-73
2022/11/07 00:06:10;;;;;;;13.70;8.88;;;;;;;;;;5079841;28;20457;-74
2022/11/07 00:08:36;;;;;;;11.82;6.90;;;;;;;;;;5082801;28;20044;-74
2022/11/07 00:11:02;;;;;;;7.78;3.95;;;;;;;;;;5073319;28;20037;-73
2022/11/07 00:13:29;;;;;;;12.13;4.47;;;;;;;;;;5085363;28;20035;-74
2022/11/07 00:15:58;;;;;;;9.30;4.63;;;;;;;;;;5091404;28;20355;-74
2022/11/07 00:18:24;;;;;;;9.95;4.10;;;;;;;;;;5083803;28;20032;-74
2022/11/07 00:20:50;;;;;;;10.07;5.28;;;;;;;;;;5084397;28;20040;-74
2022/11/07 00:23:16;;;;;;;11.43;5.93;;;;;;;;;;5085067;28;20102;-74
2022/11/07 00:25:42;;;;;;;8.70;5.20;;;;;;;;;;5082956;28;20032;-74
2022/11/07 00:28:08;;;;;;;9.70;4.60;;;;;;;;;;5082764;28;20071;-74
2022/11/07 00:30:34;;;;;;;9.45;4.03;;;;;;;;;;5079967;28;20051;-74
2022/11/07 00:33:00;;;;;;;8.48;4.18;;;;;;;;;;5086868;28;20036;-74
2022/11/07 00:35:26;;;;;;;6.82;3.33;;;;;;;;;;5080463;28;20024;-74
2022/11/07 00:37:56;;;;;;;8.73;4.55;;;;;;;;;;5083420;28;20024;-74
2022/11/07 00:40:22;;;;;;;8.27;3.63;;;;;;;;;;5084161;28;20024;-73
2022/11/07 00:42:48;;;;;;;8.35;3.78;;;;;;;;;;5084846;28;20585;-74
2022/11/07 00:45:14;;;;;;;8.95;3.28;;;;;;;;;;5073927;28;20084;-74
2022/11/07 00:47:40;;;;;;;6.95;2.60;;;;;;;;;;5079055;28;20091;-74
2022/11/07 00:50:06;;;;;;;5.68;2.70;;;;;;;;;;5078803;28;20771;-74
2022/11/07 00:52:32;;;;;;;6.90;2.58;;;;;;;;;;5081905;28;20036;-74
2022/11/07 00:54:58;;;;;;;6.90;3.30;;;;;;;;;;5077856;28;20035;-74
2022/11/07 00:57:24;;;;;;;8.13;3.28;;;;;;;;;;5087206;28;20028;-74
2022/11/07 00:59:50;;;;;;;7.88;2.70;;;;;;;;;;5077285;28;20143;-74
2022/11/07 01:02:16;;;;;;;5.15;2.50;;;;;;;;;;5073907;28;20050;-74
2022/11/07 01:05:27;;;;;;;4.97;2.22;;;;;;;;;;5078684;28;20039;-74
2022/11/07 01:07:29;;;;;;;7.88;2.55;;;;;;;;;;5074735;28;20032;-74
2022/11/07 01:09:55;;;;;;;8.85;2.50;;;;;;;;;;5080914;28;20032;-74
2022/11/07 01:12:21;;;;;;;9.15;2.35;;;;;;;;;;5075898;28;20032;-74
2022/11/07 01:14:46;;;;;;;4.85;1.60;;;;;;;;;;5082142;28;20025;-74
2022/11/07 01:17:12;;;;;;;4.40;1.20;;;;;;;;;;5077720;28;20128;-74
2022/11/07 01:19:38;;;;;;;6.25;1.77;;;;;;;;;;5076400;28;22083;-74
2022/11/07 01:22:04;;;;;;;6.85;2.17;;;;;;;;;;5076674;28;20032;-74
2022/11/07 01:24:30;;;;;;;8.40;2.60;;;;;;;;;;5087260;28;20809;-74
2022/11/07 01:26:56;;;;;;;5.63;2.42;;;;;;;;;;5084034;28;20810;-74
2022/11/07 01:29:23;;;;;;;7.65;3.42;;;;;;;;;;5083315;28;20036;-74
2022/11/07 01:31:49;;;;;;;9.23;4.88;;;;;;;;;;5081793;28;20020;-74
2022/11/07 01:34:16;;;;;;;9.90;4.47;;;;;;;;;;5091503;28;20028;-74
2022/11/07 01:36:42;;;;;;;7.78;3.60;;;;;;;;;;5080733;28;20102;-74
2022/11/07 01:39:08;;;;;;;7.38;3.28;;;;;;;;;;5086292;28;20043;-74
2022/11/07 01:41:36;;;;;;;8.70;3.53;;;;;;;;;;5082366;28;20463;-74
2022/11/07 01:44:05;;;;;;;8.80;3.88;;;;;;;;;;5083158;28;20046;-74
2022/11/07 01:46:33;;;;;;;9.38;3.78;;;;;;;;;;5084362;28;20032;-74
2022/11/07 01:49:05;;;;;;;10.35;4.28;;;;;;;;;;5081706;28;20047;-74
2022/11/07 01:51:33;;;;;;;10.05;3.60;;;;;;;;;;5086353;28;20040;-74
2022/11/07 01:53:59;;;;;;;9.02;4.10;;;;;;;;;;5083086;28;20034;-74
2022/11/07 01:56:27;;;;;;;8.48;4.35;;;;;;;;;;5082378;28;20888;-74
2022/11/07 01:58:54;;;;;;;7.45;3.72;;;;;;;;;;5088923;28;20059;-74
2022/11/07 02:01:20;;;;;;;9.02;4.38;;;;;;;;;;5084079;28;20477;-74
2022/11/07 02:03:46;;;;;;;7.30;3.70;;;;;;;;;;5084032;28;20024;-74
2022/11/07 02:06:16;;;;;;;8.95;3.60;;;;;;;;;;5078705;28;20031;-74
2022/11/07 02:08:42;;;;;;;7.03;3.17;;;;;;;;;;5085031;28;20392;-74
2022/11/07 02:11:11;;;;;;;11.07;3.75;;;;;;;;;;5091279;28;20032;-74
2022/11/07 02:13:37;;;;;;;7.75;3.60;;;;;;;;;;5081164;28;20031;-74
2022/11/07 02:16:03;;;;;;;7.15;3.10;;;;;;;;;;5084481;28;20489;-74
2022/11/07 02:18:30;;;;;;;5.93;3.08;;;;;;;;;;5080110;28;20066;-74
2022/11/07 02:20:58;;;;;;;8.23;2.97;;;;;;;;;;5098584;28;20114;-74
2022/11/07 02:23:28;;;;;;;10.48;3.25;;;;;;;;;;5081200;28;20764;-74
2022/11/07 02:25:55;;;;;;;6.53;2.97;;;;;;;;;;5088767;28;20477;-74
2022/11/07 02:28:21;;;;;;;8.23;3.92;;;;;;;;;;5090570;28;20119;-74
2022/11/07 02:30:47;;;;;;;7.35;2.55;;;;;;;;;;5092187;28;20414;-74
2022/11/07 02:33:17;;;;;;;4.97;2.03;;;;;;;;;;5085369;28;20119;-74
2022/11/07 02:35:45;;;;;;;6.00;2.50;;;;;;;;;;5086973;28;20052;-75
2022/11/07 02:38:14;;;;;;;5.75;2.28;;;;;;;;;;5088702;28;20032;-74
2022/11/07 02:40:40;;;;;;;6.90;3.03;;;;;;;;;;5087037;28;20028;-74
2022/11/07 02:43:09;;;;;;;8.40;3.00;;;;;;;;;;5084904;28;20393;-74
2022/11/07 02:45:36;;;;;;;7.43;3.13;;;;;;;;;;5088909;28;20039;-74
2022/11/07 02:48:03;;;;;;;7.10;2.83;;;;;;;;;;5075693;28;20600;-74
2022/11/07 02:50:29;;;;;;;7.75;3.33;;;;;;;;;;5087639;28;20036;-74
2022/11/07 02:52:55;;;;;;;7.93;3.17;;;;;;;;;;5090229;28;20049;-74
2022/11/07 02:55:21;;;;;;;8.60;2.90;;;;;;;;;;5079653;28;20028;-74
2022/11/07 02:57:47;;;;;;;8.75;3.45;;;;;;;;;;5079312;28;20032;-74
2022/11/07 03:00:13;;;;;;;9.77;3.88;;;;;;;;;;5082713;28;20406;-74
2022/11/07 03:02:45;;;;;;;11.45;4.43;;;;;;;;;;5087901;28;20039;-74
2022/11/07 03:05:11;;;;;;;10.43;3.95;;;;;;;;;;5078975;28;20120;-73
2022/11/07 03:07:37;;;;;;;11.35;4.32;;;;;;;;;;5075502;28;20071;-74
2022/11/07 03:10:03;;;;;;;8.23;3.65;;;;;;;;;;5088243;28;20087;-74
2022/11/07 03:12:29;;;;;;;10.48;4.35;;;;;;;;;;5086824;28;20611;-74
2022/11/07 03:14:55;;;;;;;10.60;3.10;;;;;;;;;;5085732;28;20056;-74
2022/11/07 03:17:21;;;;;;;5.93;2.25;;;;;;;;;;5085459;28;20141;-74
2022/11/07 03:19:47;;;;;;;7.10;2.08;;;;;;;;;;5081133;28;20032;-74
2022/11/07 03:22:13;;;;;;;7.07;1.60;;;;;;;;;;5092079;28;20105;-74
2022/11/07 03:24:39;;;;;;;5.25;1.90;;;;;;;;;;5077314;28;20508;-74
2022/11/07 03:27:05;;;;;;;6.55;2.20;;;;;;;;;;5084811;28;20064;-74
2022/11/07 03:29:31;;;;;;;6.75;1.70;;;;;;;;;;5079796;28;20062;-73
2022/11/07 03:31:57;;;;;;;7.60;2.28;;;;;;;;;;5083111;28;20066;-75
2022/11/07 03:34:23;;;;;;;6.93;2.90;;;;;;;;;;5077251;28;20044;-74
2022/11/07 03:36:49;;;;;;;6.63;2.10;;;;;;;;;;5083791;28;20046;-75
2022/11/07 03:39:15;;;;;;;5.32;2.05;;;;;;;;;;5088532;28;20032;-74
2022/11/07 03:41:41;;;;;;;5.57;1.80;;;;;;;;;;5075018;28;20099;-73
2022/11/07 03:44:07;;;;;;;5.85;2.45;;;;;;;;;;5077696;28;20036;-74
2022/11/07 03:46:33;;;;;;;4.57;1.55;;;;;;;;;;5078176;28;20092;-74
2022/11/07 03:48:59;;;;;;;7.40;1.90;;;;;;;;;;5086562;28;20040;-74
2022/11/07 03:51:25;;;;;;;6.55;1.90;;;;;;;;;;5086890;28;20038;-74
2022/11/07 03:53:51;;;;;;;4.28;1.50;;;;;;;;;;5091477;28;20036;-74
2022/11/07 03:56:17;;;;;;;6.95;1.40;;;;;;;;;;5076119;28;20039;-74
2022/11/07 03:58:43;;;;;;;4.00;1.45;;;;;;;;;;5078260;28;20033;-74
2022/11/07 04:01:10;;;;;;;6.03;2.17;;;;;;;;;;5088220;28;20031;-74
2022/11/07 04:03:36;;;;;;;10.38;2.55;;;;;;;;;;5082653;28;20032;-74
2022/11/07 04:06:02;;;;;;;10.90;1.83;;;;;;;;;;5087466;28;20036;-74
2022/11/07 04:08:28;;;;;;;7.22;2.47;;;;;;;;;;5085876;28;20205;-74
2022/11/07 04:10:54;;;;;;;6.97;2.35;;;;;;;;;;5083155;28;20480;-74
2022/11/07 04:18:34;;;;;;;6.07;2.17;;;;;;;;;;5083580;28;20037;-74
2022/11/07 04:21:00;;;;;;;6.20;2.20;;;;;;;;;;5078229;28;20442;-74
2022/11/07 04:23:26;;;;;;;20.35;11.00;;;;;;;;;;5074871;28;20031;-74
2022/11/07 04:28:36;;;;;;;6.25;2.92;;;;;;;;;;5087588;28;20835;-73
2022/11/07 04:31:02;;;;;;;6.80;3.50;;;;;;;;;;5086392;28;20040;-74
2022/11/07 04:33:28;;;;;;;8.02;3.92;;;;;;;;;;5088268;28;20036;-73
2022/11/07 04:35:54;;;;;;;8.40;4.03;;;;;;;;;;5081084;28;20029;-75
2022/11/07 04:38:20;;;;;;;7.57;3.80;;;;;;;;;;5080721;28;20688;-75
2022/11/07 04:40:52;;;;;;;11.68;3.95;;;;;;;;;;5079118;28;20031;-75
2022/11/07 04:43:18;;;;;;;7.93;3.70;;;;;;;;;;5079461;28;20034;-75
2022/11/07 04:45:44;;;;;;;8.82;3.15;;;;;;;;;;5072512;28;20036;-75
2022/11/07 04:48:11;;;;;;;5.88;2.85;;;;;;;;;;5080612;28;20712;-75
2022/11/07 04:50:38;;;;;;;8.60;3.38;;;;;;;;;;5081098;28;20085;-75
2022/11/07 04:53:04;;;;;;;9.93;3.40;;;;;;;;;;5086918;28;20040;-75
2022/11/07 04:55:30;;;;;;;6.65;2.97;;;;;;;;;;5081343;28;20021;-75
2022/11/07 04:57:57;;;;;;;7.55;3.40;;;;;;;;;;5079004;28;20067;-75
2022/11/07 05:00:23;;;;;;;9.82;3.90;;;;;;;;;;5090009;28;20077;-75
2022/11/07 05:02:49;;;;;;;11.25;4.55;;;;;;;;;;5084411;28;20051;-75
2022/11/07 05:05:16;;;;;;;8.82;3.53;;;;;;;;;;5084114;28;20043;-75
2022/11/07 05:07:42;;;;;;;9.40;4.13;;;;;;;;;;5075344;28;20039;-75
2022/11/07 05:10:08;;;;;;;8.73;4.38;;;;;;;;;;5080690;28;20065;-75
2022/11/07 05:12:34;;;;;;;14.02;6.43;;;;;;;;;;5078182;28;20131;-75
2022/11/07 05:15:00;;;;;;;12.68;5.57;;;;;;;;;;5081241;28;20167;-75
2022/11/07 05:17:26;;;;;;;15.43;6.90;;;;;;;;;;5084603;28;20036;-75
2022/11/07 05:19:52;;;;;;;18.20;7.72;;;;;;;;;;5096760;28;20384;-75
2022/11/07 05:25:03;;;;;;;18.10;8.00;;;;;;;;;;5075534;28;20047;-75
2022/11/07 05:27:29;;;;;;;17.00;6.70;;;;;;;;;;5087674;28;20021;-75
2022/11/07 05:29:55;;;;;;;12.70;5.95;;;;;;;;;;5085230;28;20070;-76
2022/11/07 05:32:21;;;;;;;12.48;5.85;;;;;;;;;;5089870;28;20052;-75
2022/11/07 05:34:47;;;;;;;9.57;4.40;;;;;;;;;;5091110;28;20074;-75
2022/11/07 05:37:13;;;;;;;11.18;4.50;;;;;;;;;;5084912;28;20032;-75
2022/11/07 05:39:39;;;;;;;7.85;3.80;;;;;;;;;;5087118;28;20097;-75
2022/11/07 05:42:05;;;;;;;9.57;4.45;;;;;;;;;;5085109;28;20537;-75
2022/11/07 05:44:31;;;;;;;10.45;3.63;;;;;;;;;;5084983;28;20074;-75
2022/11/07 05:46:57;;;;;;;7.00;3.75;;;;;;;;;;5091940;28;20052;-75
2022/11/07 05:49:24;;;;;;;6.22;2.75;;;;;;;;;;5087821;28;20659;-75
2022/11/07 05:51:50;;;;;;;10.50;3.33;;;;;;;;;;5086668;28;20791;-75
2022/11/07 05:54:16;;;;;;;10.15;3.22;;;;;;;;;;5084162;28;20058;-75
2022/11/07 05:56:44;;;;;;;10.85;3.95;;;;;;;;;;5084079;28;20113;-75
2022/11/07 05:59:11;;;;;;;8.40;3.30;;;;;;;;;;5077938;28;20115;-76
2022/11/07 06:01:37;;;;;;;10.38;4.10;;;;;;;;;;5086399;28;20024;-75
2022/11/07 06:04:03;;;;;;;8.27;4.43;;;;;;;;;;5087979;28;20036;-75
2022/11/07 06:06:30;;;;;;;8.18;4.10;;;;;;;;;;5084293;28;20029;-75
2022/11/07 06:08:56;;;;;;;16.98;6.72;;;;;;;;;;5090175;28;20032;-76
2022/11/07 06:11:22;;;;;;;13.85;8.25;;;;;;;;;;5081420;28;20038;-75
2022/11/07 06:13:48;;;;;;;9.30;4.47;;;;;;;;;;5075738;28;20036;-75
2022/11/07 06:16:14;;;;;;;10.82;4.05;;;;;;;;;;5080271;28;20062;-75
2022/11/07 06:18:40;;;;;;;11.05;4.47;;;;;;;;;;5085869;28;20711;-75
2022/11/07 06:21:06;;;;;;;9.15;4.03;;;;;;;;;;5077402;28;20040;-75
2022/11/07 06:23:33;;;;;;;12.35;5.45;;;;;;;;;;5081151;28;20032;-75
2022/11/07 06:25:59;;;;;;;8.15;4.28;;;;;;;;;;5086529;28;20036;-75
2022/11/07 06:28:25;;;;;;;13.48;6.32;;;;;;;;;;5087971;28;20062;-75
2022/11/07 06:30:51;;;;;;;14.73;6.80;;;;;;;;;;5080660;28;20023;-75
2022/11/07 06:33:18;;;;;;;16.95;7.47;;;;;;;;;;5090939;28;20833;-75
2022/11/07 06:35:44;;;;;;;16.73;6.38;;;;;;;;;;5085927;28;20025;-75
2022/11/07 06:38:11;;;;;;;17.48;7.18;;;;;;;;;;5083590;28;20039;-76
2022/11/07 06:40:38;;;;;;;17.13;7.93;;;;;;;;;;5088222;28;20525;-75
2022/11/07 06:43:09;;;;;;;24.08;8.10;;;;;;;;;;5086254;28;20081;-75
2022/11/07 06:45:36;;;;;;;19.05;8.10;;;;;;;;;;5083397;28;20051;-74
2022/11/07 06:48:02;;;;;;;14.88;6.85;;;;;;;;;;5087095;28;20044;-75
2022/11/07 06:50:28;;;;;;;12.60;6.13;;;;;;;;;;5085543;28;20036;-75
2022/11/07 06:52:54;;;;;;;13.70;6.45;;;;;;;;;;5083165;28;20049;-75
2022/11/07 06:55:20;;;;;;;17.42;6.65;;;;;;;;;;5087973;28;20046;-76
2022/11/07 06:57:47;;;;;;;17.15;8.65;;;;;;;;;;5083549;28;20477;-75
2022/11/07 07:00:13;;;;;;;15.00;7.55;;;;;;;;;;5087200;28;20481;-76
2022/11/07 07:02:39;;;;;;;15.63;8.15;;;;;;;;;;5078911;28;20044;-76
2022/11/07 07:05:06;;;;;;;16.65;8.98;;;;;;;;;;5088848;28;20703;-76
2022/11/07 07:07:32;;;;;;;17.65;8.75;;;;;;;;;;5085067;28;20039;-76
2022/11/07 07:09:58;;;;;;;18.35;8.32;;;;;;;;;;5084682;28;20036;-76
2022/11/07 07:12:25;;;;;;;16.98;7.75;;;;;;;;;;5077497;28;20098;-76
2022/11/07 07:14:51;;;;;;;24.17;8.23;;;;;;;;;;5086740;28;20112;-75
2022/11/07 07:17:17;;;;;;;17.38;7.57;;;;;;;;;;5086356;28;20040;-76
2022/11/07 07:19:43;;;;;;;23.17;8.02;;;;;;;;;;5086930;28;20077;-76
2022/11/07 07:22:12;;;;;;;21.05;7.47;;;;;;;;;;5077101;28;20037;-76
2022/11/07 07:24:39;;;;;;;17.13;7.07;;;;;;;;;;5076336;28;20119;-76
2022/11/07 07:27:05;;;;;;;16.52;7.68;;;;;;;;;;5085104;28;20071;-76
2022/11/07 07:29:31;;;;;;;18.58;7.43;;;;;;;;;;5083204;28;20105;-76
2022/11/07 07:31:57;;;;;;;23.92;9.65;;;;;;;;;;5082784;28;20453;-76
2022/11/07 07:34:23;;;;;;;21.55;7.63;;;;;;;;;;5087568;28;20036;-76
2022/11/07 07:36:49;;;;;;;21.45;9.45;;;;;;;;;;5083695;28;20077;-76
2022/11/07 07:39:16;;;;;;;19.98;9.38;;;;;;;;;;5079007;28;20048;-76
2022/11/07 07:41:42;;;;;;;15.88;8.30;;;;;;;;;;5081213;28;20070;-76
2022/11/07 07:44:08;;;;;;;17.95;8.68;;;;;;;;;;5084671;28;20114;-76
2022/11/07 07:46:34;;;;;;;21.95;9.05;;;;;;;;;;5080992;28;20469;-76
2022/11/07 07:49:00;;;;;;;18.50;8.38;;;;;;;;;;5088422;28;20377;-76
2022/11/07 07:51:26;;;;;;;17.38;9.18;;;;;;;;;;5079238;28;20036;-76
2022/11/07 07:53:52;;;;;;;20.48;9.52;;;;;;;;;;5083048;28;20086;-76
2022/11/07 07:56:18;;;;;;;16.83;6.57;;;;;;;;;;5086421;28;20024;-76
2022/11/07 07:58:45;;;;;;;27.70;13.05;;;;;;;;;;5083726;28;20025;-76
2022/11/07 08:01:11;;;;;;;29.65;13.85;;;;;;;;;;5083547;28;20370;-76
2022/11/07 08:03:37;;;;;;;26.17;14.65;;;;;;;;;;5079160;28;20031;-76
2022/11/07 08:06:04;;;;;;;22.05;11.13;;;;;;;;;;5083813;28;20333;-76
2022/11/07 08:08:31;;;;;;;23.17;13.35;;;;;;;;;;5081948;28;20786;-76
2022/11/07 08:11:01;;;;;;;19.50;11.98;;;;;;;;;;5078636;28;20071;-76
2022/11/07 08:13:27;;;;;;;16.23;9.88;;;;;;;;;;5079030;28;20108;-76
2022/11/07 08:15:53;;;;;;;17.45;9.57;;;;;;;;;;5087023;28;20035;-76
2022/11/07 08:18:23;;;;;;;23.05;10.95;;;;;;;;;;5086749;28;20020;-76
2022/11/07 08:20:49;;;;;;;18.08;8.75;;;;;;;;;;5083587;28;20049;-76
2022/11/07 08:23:16;;;;;;;17.58;8.15;;;;;;;;;;5085052;28;20032;-76
2022/11/07 08:25:42;;;;;;;17.02;7.50;;;;;;;;;;5084344;28;20036;-76
2022/11/07 08:28:08;;;;;;;14.43;6.28;;;;;;;;;;5078441;28;20077;-76
2022/11/07 08:30:34;;;;;;;11.27;5.50;;;;;;;;;;5088147;28;20040;-76
2022/11/07 08:33:04;;;;;;;18.45;6.25;;;;;;;;;;5085735;28;20027;-76
2022/11/07 08:35:30;;;;;;;11.43;4.18;;;;;;;;;;5079504;28;20024;-76
2022/11/07 08:37:57;;;;;;;16.98;5.80;;;;;;;;;;5085300;28;20107;-76
2022/11/07 08:40:23;;;;;;;10.20;4.95;;;;;;;;;;5084624;28;20036;-76
2022/11/07 08:42:49;;;;;;;10.45;5.00;;;;;;;;;;5086409;28;20819;-76
2022/11/07 08:45:15;;;;;;;9.38;4.72;;;;;;;;;;5083540;28;20035;-76
2022/11/07 08:47:41;;;;;;;6.05;2.30;;;;;;;;;;5083420;28;20059;-76
2022/11/07 08:50:07;;;;;;;5.80;1.10;;;;;;;;;;5085793;28;20028;-76
2022/11/07 08:52:34;;;;;;;10.60;4.00;;;;;;;;;;5085522;28;20039;-76
2022/11/07 08:55:00;;;;;;;12.23;4.82;;;;;;;;;;5075789;28;20111;-76
2022/11/07 08:57:26;;;;;;;11.73;4.43;;;;;;;;;;5082811;28;20032;-76
2022/11/07 08:59:52;;;;;;;8.10;3.50;;;;;;;;;;5076642;28;20517;-76
2022/11/07 09:02:18;;;;;;;13.52;3.60;;;;;;;;;;5081623;28;20032;-76
2022/11/07 09:04:44;;;;;;;14.80;4.20;;;;;;;;;;5079811;28;20040;-76
2022/11/07 09:07:10;;;;;;;7.90;3.40;;;;;;;;;;5076245;28;20038;-76
2022/11/07 09:09:36;;;;;;;8.32;2.63;;;;;;;;;;5074974;28;20024;-76
2022/11/07 09:12:02;;;;;;;11.70;3.25;;;;;;;;;;5083451;28;20474;-75
2022/11/07 09:14:28;;;;;;;13.52;5.10;;;;;;;;;;5060422;28;20052;-76
2022/11/07 09:16:54;;;;;;;9.75;4.28;;;;;;;;;;5074705;28;20039;-76
2022/11/07 09:19:21;;;;;;;12.00;3.28;;;;;;;;;;5078730;28;20034;-76
2022/11/07 09:21:48;;;;;;;6.88;2.08;;;;;;;;;;5083327;28;20055;-75
2022/11/07 09:24:13;;;;;;;8.38;2.15;;;;;;;;;;5081898;28;21184;-76
2022/11/07 09:26:39;;;;;;;5.05;2.05;;;;;;;;;;5075921;28;20107;-76
2022/11/07 09:29:05;;;;;;;5.82;1.88;;;;;;;;;;5085290;28;20063;-75
2022/11/07 09:31:31;;;;;;;7.28;1.75;;;;;;;;;;5075027;28;20043;-75
2022/11/07 09:33:57;;;;;;;6.97;1.73;;;;;;;;;;5082371;28;20193;-76
2022/11/07 09:36:23;;;;;;;5.53;1.52;;;;;;;;;;5080433;28;20029;-76
2022/11/07 09:38:50;;;;;;;5.00;1.60;;;;;;;;;;5082872;28;20027;-76
2022/11/07 09:41:25;;;;;;;5.95;1.67;;;;;;;;;;5081098;28;20069;-76
2022/11/07 09:44:03;;;;;;;6.45;1.35;;;;;;;;;;5080842;28;20039;-76
2022/11/07 09:46:36;;;;;;;5.30;1.75;;;;;;;;;;5079969;28;20043;-76
2022/11/07 09:49:21;;;;;;;9.32;1.52;;;;;;;;;;5081729;28;20071;-76
2022/11/07 09:51:51;;;;;;;7.82;2.05;;;;;;;;;;5080742;28;20078;-76
2022/11/07 09:54:22;;;;;;;5.65;1.10;;;;;;;;;;5080525;28;20032;-76
2022/11/07 09:56:48;;;;;;;6.95;1.55;;;;;;;;;;5083124;28;20028;-76
2022/11/07 09:59:26;;;;;;;31.88;4.15;;;;;;;;;;5088016;28;20480;-76
2022/11/07 10:01:52;;;;;;;87.53;10.05;;;;;;;;;;5088331;28;20876;-76
2022/11/07 10:04:19;;;;;;;14.48;1.98;;;;;;;;;;5083083;28;20040;-76
2022/11/07 10:07:16;;;;;;;8.27;1.52;;;;;;;;;;5082561;28;20650;-74
2022/11/07 10:10:03;;;;;;;4.45;1.15;;;;;;;;;;5008688;28;20108;-75
2022/11/07 10:12:52;;;;;;;6.22;1.45;;;;;;;;;;5080516;28;20031;-74
2022/11/07 10:15:26;;;;;;;6.57;1.30;;;;;;;;;;5081112;28;20564;-76
2022/11/07 10:17:52;;;;;;;4.70;1.30;;;;;;;;;;5085561;28;20036;-74
2022/11/07 10:20:45;;;;;;;3.33;0.85;;;;;;;;;;5079404;28;20085;-74
2022/11/07 10:23:10;;;;;;;3.35;0.90;;;;;;;;;;5047979;28;20036;-74
2022/11/07 10:25:46;;;;;;;3.55;0.68;;;;;;;;;;5078456;28;20039;-74
2022/11/07 10:28:12;;;;;;;6.28;0.90;;;;;;;;;;5076566;28;20032;-74
2022/11/07 10:30:38;;;;;;;6.00;1.48;;;;;;;;;;5075198;28;20032;-74
2022/11/07 10:33:04;;;;;;;3.15;0.88;;;;;;;;;;5075618;28;20771;-74
2022/11/07 10:35:31;;;;;;;5.50;1.00;;;;;;;;;;5077984;28;20050;-74
2022/11/07 10:37:59;;;;;;;2.78;1.00;;;;;;;;;;5083451;28;20032;-74
2022/11/07 10:40:27;;;;;;;2.42;0.93;;;;;;;;;;5076653;28;20584;-74
2022/11/07 10:42:55;;;;;;;5.20;1.15;;;;;;;;;;5079533;28;20034;-74
2022/11/07 10:45:22;;;;;;;9.70;1.75;;;;;;;;;;5082711;28;20144;-74
2022/11/07 10:47:56;;;;;;;4.57;1.95;;;;;;;;;;5077536;28;20118;-74
2022/11/07 10:50:22;;;;;;;4.57;1.40;;;;;;;;;;5083920;28;20591;-74
2022/11/07 10:53:08;;;;;;;5.35;1.20;;;;;;;;;;5079610;28;20063;-74
2022/11/07 10:55:44;;;;;;;3.85;1.13;;;;;;;;;;5079784;28;20037;-74
2022/11/07 10:58:18;;;;;;;3.72;1.40;;;;;;;;;;5079909;28;20656;-72
2022/11/07 11:00:55;;;;;;;6.28;1.55;;;;;;;;;;5077398;28;20056;-74
2022/11/07 11:03:24;;;;;;;6.97;1.77;;;;;;;;;;5064753;28;20032;-74
2022/11/07 11:05:50;;;;;;;8.13;2.85;;;;;;;;;;5080776;28;20036;-74
2022/11/07 11:08:18;;;;;;;11.13;4.93;;;;;;;;;;5079831;28;20058;-74
2022/11/07 11:10:44;;;;;;;9.07;3.97;;;;;;;;;;5077531;28;20047;-74
2022/11/07 11:13:27;;;;;;;8.77;3.60;;;;;;;;;;5079220;28;20032;-74
2022/11/07 11:15:54;;;;;;;8.30;2.95;;;;;;;;;;5077345;28;20089;-74
2022/11/07 11:18:20;;;;;;;7.50;2.13;;;;;;;;;;5071392;28;20024;-74
2022/11/07 11:20:57;;;;;;;6.38;2.03;;;;;;;;;;5079706;28;20055;-74
2022/11/07 11:23:24;;;;;;;6.28;1.92;;;;;;;;;;5081784;28;20031;-73
2022/11/07 11:25:51;;;;;;;7.85;1.90;;;;;;;;;;5083666;28;20123;-73
2022/11/07 11:28:21;;;;;;;5.95;1.83;;;;;;;;;;5079213;28;20500;-73
2022/11/07 11:30:50;;;;;;;5.22;1.20;;;;;;;;;;5061885;28;20582;-73
2022/11/07 11:33:19;;;;;;;3.15;1.35;;;;;;;;;;5078649;28;20036;-73
2022/11/07 11:35:47;;;;;;;5.38;1.05;;;;;;;;;;5064312;28;20477;-73
2022/11/07 11:38:16;;;;;;;4.50;0.95;;;;;;;;;;5063760;28;20580;-73
2022/11/07 11:40:43;;;;;;;4.53;1.10;;;;;;;;;;5077397;28;20028;-74
2022/11/07 11:43:25;;;;;;;9.07;2.20;;;;;;;;;;5072014;28;20121;-74
2022/11/07 11:46:00;;;;;;;2.33;0.70;;;;;;;;;;5075482;28;20182;-74
2022/11/07 11:48:34;;;;;;;2.00;0.60;;;;;;;;;;5080902;28;20166;-73
2022/11/07 11:51:06;;;;;;;1.92;0.60;;;;;;;;;;5078620;28;20141;-74
2022/11/07 11:53:32;;;;;;;3.55;1.17;;;;;;;;;;5078505;28;20091;-73
2022/11/07 11:56:07;;;;;;;2.33;0.70;;;;;;;;;;5081789;28;20522;-74
2022/11/07 11:58:51;;;;;;;2.72;0.70;;;;;;;;;;5077446;28;20016;-73
2022/11/07 12:01:26;;;;;;;3.55;0.90;;;;;;;;;;5076750;28;20365;-73
2022/11/07 12:03:55;;;;;;;4.80;1.52;;;;;;;;;;5080353;28;20043;-73
2022/11/07 12:06:26;;;;;;;5.13;1.30;;;;;;;;;;5077837;28;20073;-73
2022/11/07 12:08:55;;;;;;;2.50;0.60;;;;;;;;;;5059433;28;20128;-72
2022/11/07 12:11:26;;;;;;;3.03;0.52;;;;;;;;;;5076291;28;20039;-73
2022/11/07 12:13:54;;;;;;;3.25;0.70;;;;;;;;;;5078625;28;20118;-72
2022/11/07 12:16:32;;;;;;;2.45;0.50;;;;;;;;;;5068592;28;20024;-73
2022/11/07 12:19:16;;;;;;;3.80;0.52;;;;;;;;;;5060538;28;20466;-73
2022/11/07 12:22:05;;;;;;;2.58;0.50;;;;;;;;;;5077162;28;20842;-73
2022/11/07 12:24:31;;;;;;;3.88;0.50;;;;;;;;;;5078976;28;20045;-73
2022/11/07 12:27:04;;;;;;;3.47;0.63;;;;;;;;;;5077568;28;20424;-73
2022/11/07 12:29:35;;;;;;;2.53;0.47;;;;;;;;;;5079070;28;20062;-72
2022/11/07 12:32:07;;;;;;;5.53;0.90;;;;;;;;;;5076472;28;20031;-73
2022/11/07 12:34:44;;;;;;;2.80;1.02;;;;;;;;;;5076229;28;20036;-73
2022/11/07 12:37:29;;;;;;;2.72;0.70;;;;;;;;;;5078629;28;20039;-72
2022/11/07 12:39:55;;;;;;;3.97;0.55;;;;;;;;;;5075707;28;20082;-73
2022/11/07 12:42:23;;;;;;;3.35;0.50;;;;;;;;;;5079769;28;20874;-73
2022/11/07 12:45:02;;;;;;;3.80;0.80;;;;;;;;;;5076901;28;20036;-73
2022/11/07 12:47:47;;;;;;;2.83;0.40;;;;;;;;;;5061971;28;20135;-73
2022/11/07 12:50:25;;;;;;;1.45;0.32;;;;;;;;;;5073756;28;20032;-72
2022/11/07 12:52:54;;;;;;;1.33;0.60;;;;;;;;;;5074030;28;20535;-73
2022/11/07 12:55:41;;;;;;;2.33;0.50;;;;;;;;;;5078508;28;20056;-73
2022/11/07 12:58:13;;;;;;;5.05;0.40;;;;;;;;;;5080309;28;20451;-72
2022/11/07 13:00:40;;;;;;;2.53;0.40;;;;;;;;;;5077253;28;20050;-72
2022/11/07 13:03:24;;;;;;;1.77;0.30;;;;;;;;;;5078520;28;20804;-73
2022/11/07 13:05:59;;;;;;;2.80;0.60;;;;;;;;;;5076255;28;20040;-72
2022/11/07 13:08:31;;;;;;;3.03;0.70;;;;;;;;;;5074407;28;20047;-72
2022/11/07 13:11:03;;;;;;;1.88;0.50;;;;;;;;;;5075024;28;20040;-73
2022/11/07 13:13:29;;;;;;;;;;;;;;;;;;5062687;28;20036;-73
2022/11/07 13:16:04;;;;;;;2.45;0.30;;;;;;;;;;5077637;28;19915;-73
2022/11/07 13:18:30;;;;;;;2.28;0.50;;;;;;;;;;5078981;28;20048;-72
2022/11/07 13:21:04;;;;;;;7.80;0.73;;;;;;;;;;5058719;28;20028;-73
2022/11/07 13:23:30;;;;;;;4.25;0.60;;;;;;;;;;5077162;28;20029;-72
2022/11/07 13:26:00;;;;;;;2.55;0.50;;;;;;;;;;5074734;28;20031;-72
2022/11/07 13:28:35;;;;;;;1.45;0.32;;;;;;;;;;5074630;28;20029;-72
2022/11/07 13:31:01;;;;;;;1.92;0.30;;;;;;;;;;5080962;28;20046;-72
2022/11/07 13:33:29;;;;;;;2.75;0.77;;;;;;;;;;5082722;28;20028;-72
2022/11/07 13:35:57;;;;;;;2.80;0.70;;;;;;;;;;5082267;28;20381;-72
2022/11/07 13:38:23;;;;;;;2.22;0.55;;;;;;;;;;5080570;28;20028;-72
2022/11/07 13:40:51;;;;;;;1.10;0.32;;;;;;;;;;5064108;28;20039;-72
2022/11/07 13:43:19;;;;;;;4.70;0.40;;;;;;;;;;5076926;28;20035;-72
2022/11/07 13:45:45;;;;;;;2.20;0.38;;;;;;;;;;5080646;28;20040;-72
2022/11/07 13:48:20;;;;;;;3.25;0.38;;;;;;;;;;5077215;28;20398;-72
2022/11/07 13:51:04;;;;;;;2.53;0.40;;;;;;;;;;5076289;28;20040;-72
2022/11/07 13:53:37;;;;;;;2.65;0.50;;;;;;;;;;5078773;28;20134;-72
2022/11/07 13:56:24;;;;;;;2.92;0.45;;;;;;;;;;5079430;28;20125;-73
2022/11/07 13:58:51;;;;;;;2.22;0.50;;;;;;;;;;5078936;28;20031;-72
2022/11/07 14:01:17;;;;;;;2.50;0.60;;;;;;;;;;5075163;28;20082;-72
2022/11/07 14:03:43;;;;;;;6.63;1.20;;;;;;;;;;5081281;28;20032;-72
2022/11/07 14:06:12;;;;;;;6.32;1.52;;;;;;;;;;5067282;28;20046;-72
2022/11/07 14:08:39;;;;;;;7.50;1.83;;;;;;;;;;5081908;28;20466;-73
2022/11/07 14:11:14;;;;;;;8.25;1.90;;;;;;;;;;5082878;28;20540;-72
2022/11/07 14:13:40;;;;;;;5.32;1.20;;;;;;;;;;5077206;28;20107;-72
2022/11/07 14:16:26;;;;;;;3.00;0.60;;;;;;;;;;5067072;28;20060;-72
2022/11/07 14:18:55;;;;;;;3.80;0.70;;;;;;;;;;5078453;28;20064;-72
2022/11/07 14:21:26;;;;;;;1.70;0.43;;;;;;;;;;5075682;28;20108;-72
2022/11/07 14:23:52;;;;;;;3.08;0.80;;;;;;;;;;5083916;28;20060;-72
2022/11/07 14:26:18;;;;;;;3.95;0.75;;;;;;;;;;5076775;28;20074;-72
2022/11/07 14:28:44;;;;;;;4.15;1.02;;;;;;;;;;5059323;28;20078;-72
2022/11/07 14:31:19;;;;;;;2.38;0.60;;;;;;;;;;5075895;28;20040;-72
2022/11/07 14:33:52;;;;;;;2.05;0.50;;;;;;;;;;5081367;28;20032;-72
2022/11/07 14:36:19;;;;;;;3.05;0.70;;;;;;;;;;5075937;28;20029;-72
2022/11/07 14:38:46;;;;;;;5.45;0.90;;;;;;;;;;5064753;28;20742;-72
2022/11/07 14:41:13;;;;;;;3.80;1.10;;;;;;;;;;5075948;28;20052;-73
2022/11/07 14:43:39;;;;;;;5.25;1.98;;;;;;;;;;5076687;28;20032;-72
2022/11/07 14:46:07;;;;;;;10.13;2.13;;;;;;;;;;5080704;28;20020;-72
2022/11/07 14:48:34;;;;;;;5.43;2.03;;;;;;;;;;5060299;28;20568;-72
2022/11/07 14:51:00;;;;;;;4.40;1.67;;;;;;;;;;5081706;28;20064;-72
2022/11/07 14:53:43;;;;;;;3.97;1.10;;;;;;;;;;5080832;28;20040;-73
2022/11/07 14:56:12;;;;;;;2.20;0.63;;;;;;;;;;5075035;28;20035;-72